This is the latest recevied weather packets stored in our database for station/object DB2YI-13. If no packets are shown the sender has not sent any weather packets the latest 10 day(s).
| Time | Temp. | Humidity | Pressure | Rain* | Wind** | Luminosity | Snow |
|---|---|---|---|---|---|---|---|
| 1777483801 | 15° C | 31% | - | 0 mm | - | - | - |
| 1777483201 | 15° C | 31% | - | 0 mm | - | - | - |
| 1777482601 | 15.56° C | 31% | - | 0 mm | - | - | - |
| 1777482001 | 15.56° C | 30% | - | 0 mm | - | - | - |
| 1777481401 | 15.56° C | 30% | - | 0 mm | - | - | - |
| 1777480801 | 15.56° C | 30% | - | 0 mm | - | - | - |
| 1777480201 | 16.11° C | 28% | - | 0 mm | - | - | - |
| 1777479601 | 16.11° C | 30% | - | 0 mm | - | - | - |
| 1777479002 | 16.11° C | 30% | - | 0 mm | - | - | - |
| 1777478401 | 16.11° C | 31% | - | 0 mm | - | - | - |
| 1777477801 | 16.67° C | 28% | - | 0 mm | - | - | - |
| 1777477203 | 16.11° C | 30% | - | 0 mm | - | - | - |
| 1777476602 | 16.67° C | 28% | - | 0 mm | - | - | - |
| 1777476001 | 16.67° C | 30% | - | 0 mm | - | - | - |
| 1777475401 | 16.67° C | 30% | - | 0 mm | - | - | - |
| 1777474802 | 16.67° C | 31% | - | 0 mm | - | - | - |
| 1777474201 | 16.67° C | 30% | - | 0 mm | - | - | - |
| 1777473603 | 17.22° C | 31% | - | 0 mm | - | - | - |
| 1777473001 | 17.22° C | 32% | - | 0 mm | - | - | - |
| 1777472401 | 17.22° C | 30% | - | 0 mm | - | - | - |
| 1777471801 | 17.22° C | 32% | - | 0 mm | - | - | - |
| 1777471203 | 17.78° C | 30% | - | 0 mm | - | - | - |
| 1777470602 | 17.22° C | 31% | - | 0 mm | - | - | - |
| 1777470001 | 17.22° C | 30% | - | 0 mm | - | - | - |
| 1777469401 | 17.22° C | 28% | - | 0 mm | - | - | - |
* Rain latest hour (hover to see other rain measurements)
** Current wind speed in m/s (hover to see current wind gust speed)